createdAt,value
2023-05-05T00:01:08.163Z,94644.22
2023-05-05T00:03:35.479Z,94637.28
2023-05-05T00:06:02.919Z,94637.22
2023-05-05T00:08:29.644Z,94628.00
2023-05-05T00:10:56.346Z,94635.47
2023-05-05T00:13:23.465Z,94628.34
2023-05-05T00:15:51.832Z,94626.47
2023-05-05T00:18:19.248Z,94631.63
2023-05-05T00:20:46.533Z,94629.53
2023-05-05T00:23:18.757Z,94638.28
2023-05-05T00:25:45.528Z,94630.63
2023-05-05T00:28:12.576Z,94629.47
2023-05-05T00:31:02.019Z,94627.16
2023-05-05T00:33:28.877Z,94623.94
2023-05-05T00:35:55.627Z,94631.44
2023-05-05T00:38:22.878Z,94631.63
2023-05-05T00:40:49.613Z,94628.31
2023-05-05T00:43:16.891Z,94628.31
2023-05-05T00:45:43.854Z,94625.09
2023-05-05T00:48:10.721Z,94628.09
2023-05-05T00:50:37.603Z,94622.19
2023-05-05T00:53:06.785Z,94622.91
2023-05-05T00:55:34.107Z,94621.84
2023-05-05T00:58:01.358Z,94623.34
2023-05-05T01:00:28.540Z,94621.56
2023-05-05T01:03:30.295Z,94616.78
2023-05-05T01:06:12.509Z,94609.97
2023-05-05T01:09:04.626Z,94614.41
2023-05-05T01:12:02.784Z,94603.66
2023-05-05T01:14:40.504Z,94606.41
2023-05-05T01:17:16.802Z,94612.34
2023-05-05T01:20:09.866Z,94611.47
2023-05-05T01:22:39.602Z,94608.41
2023-05-05T01:25:25.082Z,94607.25
2023-05-05T01:28:18.339Z,94611.91
2023-05-05T01:31:20.005Z,94606.66
2023-05-05T01:33:49.316Z,94602.91
2023-05-05T01:36:23.825Z,94612.63
2023-05-05T01:38:53.749Z,94608.88
2023-05-05T01:41:24.675Z,94609.78
2023-05-05T01:43:54.463Z,94611.56
2023-05-05T01:46:21.864Z,94616.00
2023-05-05T01:48:48.860Z,94614.03
2023-05-05T01:51:16.079Z,94604.88
2023-05-05T01:53:44.340Z,94599.25
2023-05-05T01:56:11.338Z,94602.34
2023-05-05T01:58:38.183Z,94611.91
2023-05-05T02:01:05.227Z,94608.28
2023-05-05T02:03:32.577Z,94612.63
2023-05-05T02:05:59.667Z,94611.09
2023-05-05T02:08:26.888Z,94610.59
2023-05-05T02:10:54.219Z,94607.22
2023-05-05T02:13:21.803Z,94606.47
2023-05-05T02:19:18.247Z,94601.00
2023-05-05T02:21:45.364Z,94603.97
2023-05-05T02:24:12.430Z,94602.63
2023-05-05T02:26:39.891Z,94597.69
2023-05-05T02:29:20.130Z,94601.00
2023-05-05T02:31:49.930Z,94601.59
2023-05-05T02:34:18.510Z,94598.25
2023-05-05T02:36:45.481Z,94594.44
2023-05-05T02:39:27.539Z,94602.69
2023-05-05T02:41:54.766Z,94600.75
2023-05-05T02:44:23.162Z,94592.53
2023-05-05T02:46:49.945Z,94594.06
2023-05-05T02:49:17.234Z,94594.84
2023-05-05T02:51:44.324Z,94602.50
2023-05-05T02:54:11.348Z,94602.19
2023-05-05T02:56:48.872Z,94594.75
2023-05-05T03:03:14.125Z,94595.25
2023-05-05T03:05:47.388Z,94590.94
2023-05-05T03:08:18.190Z,94591.66
2023-05-05T03:14:19.311Z,94581.91
2023-05-05T03:16:46.399Z,94584.41
2023-05-05T03:19:14.789Z,94582.78
2023-05-05T03:21:42.773Z,94590.03
2023-05-05T03:24:13.777Z,94582.69
2023-05-05T03:26:41.041Z,94583.16
2023-05-05T03:29:07.734Z,94582.59
2023-05-05T03:31:34.831Z,94581.53
2023-05-05T03:34:01.924Z,94579.47
2023-05-05T03:36:29.479Z,94579.97
2023-05-05T03:38:57.345Z,94582.47
2023-05-05T03:41:24.078Z,94588.03
2023-05-05T03:43:51.606Z,94582.94
2023-05-05T03:46:21.341Z,94576.50
2023-05-05T03:48:48.450Z,94579.47
2023-05-05T03:51:15.873Z,94587.69
2023-05-05T03:53:42.585Z,94588.66
2023-05-05T03:56:09.678Z,94583.72
2023-05-05T03:58:36.705Z,94593.22
2023-05-05T04:01:03.584Z,94593.69
2023-05-05T04:03:31.001Z,94597.56
2023-05-05T04:05:58.904Z,94590.59
2023-05-05T04:08:25.593Z,94584.78
2023-05-05T04:10:52.814Z,94582.09
2023-05-05T04:13:19.560Z,94589.19
2023-05-05T04:19:40.925Z,94573.75
2023-05-05T04:22:08.430Z,94572.41
2023-05-05T04:24:35.576Z,94569.88
2023-05-05T04:27:03.192Z,94578.78
2023-05-05T04:29:30.282Z,94577.31
2023-05-05T04:31:57.047Z,94580.53
2023-05-05T04:34:24.142Z,94583.38
2023-05-05T04:36:51.325Z,94578.59
2023-05-05T04:39:18.500Z,94577.44
2023-05-05T04:41:45.331Z,94578.47
2023-05-05T04:44:12.308Z,94568.44
2023-05-05T04:46:39.198Z,94570.38
2023-05-05T04:49:05.908Z,94574.25
2023-05-05T04:51:32.861Z,94571.09
2023-05-05T04:53:59.724Z,94574.94
2023-05-05T04:56:27.421Z,94571.56
2023-05-05T04:58:55.726Z,94570.44
2023-05-05T05:01:22.646Z,94575.16
2023-05-05T05:03:49.818Z,94586.53
2023-05-05T05:06:16.737Z,94580.41
2023-05-05T05:08:44.856Z,94572.50
2023-05-05T05:11:11.909Z,94581.63
2023-05-05T05:13:38.646Z,94581.19
2023-05-05T05:16:07.415Z,94583.88
2023-05-05T05:18:34.234Z,94571.44
2023-05-05T05:21:01.536Z,94576.63
2023-05-05T05:23:29.606Z,94571.19
2023-05-05T05:25:56.804Z,94571.72
2023-05-05T05:28:23.885Z,94572.50
2023-05-05T05:30:51.251Z,94565.59
2023-05-05T05:33:17.915Z,94574.94
2023-05-05T05:35:45.010Z,94574.69
2023-05-05T05:38:12.212Z,94575.97
2023-05-05T05:41:10.258Z,94567.06
2023-05-05T05:43:37.367Z,94572.88
2023-05-05T05:46:08.271Z,94577.47
2023-05-05T05:48:35.942Z,94584.56
2023-05-05T05:51:03.914Z,94578.22
2023-05-05T05:53:30.897Z,94590.94
2023-05-05T05:55:58.422Z,94593.84
2023-05-05T05:58:27.848Z,94590.16
2023-05-05T06:00:54.663Z,94581.38
2023-05-05T06:03:22.005Z,94582.38
2023-05-05T06:05:49.138Z,94584.00
2023-05-05T06:08:16.601Z,94579.09
2023-05-05T06:10:43.897Z,94587.06
2023-05-05T06:13:10.710Z,94584.75
2023-05-05T06:15:37.499Z,94587.09
2023-05-05T06:18:05.501Z,94592.16
2023-05-05T06:20:35.085Z,94585.81
2023-05-05T06:23:02.805Z,94582.28
2023-05-05T06:25:29.956Z,94593.91
2023-05-05T06:27:59.245Z,94584.28
2023-05-05T06:30:27.253Z,94589.06
2023-05-05T06:32:54.463Z,94589.75
2023-05-05T06:35:21.443Z,94582.97
2023-05-05T06:37:48.618Z,94580.13
2023-05-05T06:40:16.515Z,94587.84
2023-05-05T06:42:54.244Z,94582.50
2023-05-05T06:45:26.715Z,94585.38
2023-05-05T06:47:53.543Z,94586.44
2023-05-05T06:50:20.333Z,94579.28
2023-05-05T06:52:48.625Z,94588.28
2023-05-05T06:55:18.201Z,94579.13
2023-05-05T06:57:45.879Z,94581.69
2023-05-05T07:00:23.442Z,94581.34
2023-05-05T07:02:51.002Z,94583.75
2023-05-05T07:05:18.601Z,94582.09
2023-05-05T07:07:55.718Z,94585.91
2023-05-05T07:10:23.278Z,94583.06
2023-05-05T07:12:50.131Z,94583.34
2023-05-05T07:15:27.430Z,94572.66
2023-05-05T07:17:56.376Z,94567.16
2023-05-05T07:20:24.686Z,94574.28
2023-05-05T07:22:52.367Z,94578.34
2023-05-05T07:25:20.155Z,94573.72
2023-05-05T07:27:47.237Z,94569.97
2023-05-05T07:30:18.131Z,94574.75
2023-05-05T07:32:49.027Z,94561.28
2023-05-05T07:35:16.571Z,94566.53
2023-05-05T07:37:45.712Z,94561.47
2023-05-05T07:40:12.786Z,94557.28
2023-05-05T07:42:42.201Z,94561.06
2023-05-05T07:45:10.865Z,94561.25
2023-05-05T07:47:39.252Z,94561.59
2023-05-05T07:50:08.852Z,94558.34
2023-05-05T07:52:46.524Z,94563.59
2023-05-05T07:55:15.850Z,94556.34
2023-05-05T07:57:42.609Z,94561.81
2023-05-05T08:00:11.135Z,94560.06
2023-05-05T08:02:38.609Z,94555.66
2023-05-05T08:05:07.009Z,94552.78
2023-05-05T08:07:35.064Z,94550.94
2023-05-05T08:10:02.938Z,94551.63
2023-05-05T08:12:30.108Z,94540.28
2023-05-05T08:14:58.064Z,94543.38
2023-05-05T08:17:25.140Z,94543.47
2023-05-05T08:20:02.188Z,94545.44
2023-05-05T08:22:29.723Z,94538.69
2023-05-05T08:24:57.981Z,94539.66
2023-05-05T08:27:25.058Z,94543.00
2023-05-05T08:29:52.089Z,94544.09
2023-05-05T08:32:21.577Z,94546.59
2023-05-05T08:34:48.894Z,94541.41
2023-05-05T08:37:15.993Z,94546.97
2023-05-05T08:39:44.228Z,94546.97
2023-05-05T08:42:12.324Z,94544.13
2023-05-05T08:44:40.965Z,94543.69
2023-05-05T08:47:08.678Z,94546.56
2023-05-05T08:49:40.580Z,94536.78
2023-05-05T08:52:07.345Z,94534.53
2023-05-05T08:54:36.125Z,94537.16
2023-05-05T08:57:03.241Z,94542.31
2023-05-05T08:59:30.550Z,94540.75
2023-05-05T09:02:01.519Z,94534.00
2023-05-05T09:04:28.652Z,94528.00
2023-05-05T09:06:58.272Z,94524.25
2023-05-05T09:09:27.877Z,94522.25
2023-05-05T09:11:55.740Z,94527.66
2023-05-05T09:14:23.196Z,94527.88
2023-05-05T09:16:50.114Z,94523.44
2023-05-05T09:19:16.854Z,94526.03
2023-05-05T09:21:47.489Z,94515.50
2023-05-05T09:24:14.494Z,94513.38
2023-05-05T09:26:42.764Z,94512.97
2023-05-05T09:29:09.580Z,94515.22
2023-05-05T09:31:36.749Z,94519.81
2023-05-05T09:34:16.514Z,94522.63
2023-05-05T09:36:48.183Z,94517.47
2023-05-05T09:39:34.810Z,94511.84
2023-05-05T09:42:01.599Z,94523.19
2023-05-05T09:44:39.207Z,94512.94
2023-05-05T09:47:18.106Z,94518.50
2023-05-05T09:49:59.039Z,94513.84
2023-05-05T09:52:26.318Z,94504.88
2023-05-05T09:54:58.960Z,94504.72
2023-05-05T09:57:30.752Z,94504.16
2023-05-05T10:00:04.070Z,94498.78
2023-05-05T10:02:35.550Z,94496.09
2023-05-05T10:05:05.328Z,94497.94
2023-05-05T10:07:32.143Z,94490.09
2023-05-05T10:09:58.907Z,94501.09
2023-05-05T10:12:26.182Z,94486.06
2023-05-05T10:14:52.995Z,94479.56
2023-05-05T10:17:20.048Z,94490.59
2023-05-05T10:19:47.079Z,94481.59
2023-05-05T10:22:14.161Z,94485.06
2023-05-05T10:24:44.646Z,94490.09
2023-05-05T10:27:19.028Z,94488.28
2023-05-05T10:30:03.204Z,94483.16
2023-05-05T10:33:04.051Z,94480.84
2023-05-05T10:35:35.624Z,94486.34
2023-05-05T10:38:02.680Z,94474.63
2023-05-05T10:40:29.696Z,94474.91
2023-05-05T10:42:56.929Z,94483.47
2023-05-05T10:45:23.685Z,94481.97
2023-05-05T10:47:50.801Z,94489.69
2023-05-05T10:50:31.113Z,94476.28
2023-05-05T10:53:13.237Z,94478.16
2023-05-05T10:55:44.610Z,94480.53
2023-05-05T10:58:51.208Z,94482.00
2023-05-05T11:01:31.856Z,94473.03
2023-05-05T11:04:21.827Z,94475.31
2023-05-05T11:07:27.172Z,94470.16
2023-05-05T11:09:59.944Z,94460.16
2023-05-05T11:12:27.379Z,94468.69
2023-05-05T11:15:28.802Z,94464.09
2023-05-05T11:17:58.017Z,94458.00
2023-05-05T11:20:44.428Z,94462.00
2023-05-05T11:23:11.417Z,94462.91
2023-05-05T11:25:47.942Z,94458.00
2023-05-05T11:28:18.895Z,94457.06
2023-05-05T11:30:55.853Z,94466.66
2023-05-05T11:33:32.140Z,94455.31
2023-05-05T11:36:05.958Z,94450.28
2023-05-05T11:38:54.876Z,94441.50
2023-05-05T11:41:33.553Z,94440.22
2023-05-05T11:44:29.475Z,94447.78
2023-05-05T11:47:00.670Z,94442.03
2023-05-05T11:49:41.356Z,94449.06
2023-05-05T11:52:11.995Z,94431.94
2023-05-05T11:54:40.990Z,94434.44
2023-05-05T11:57:08.769Z,94432.16
2023-05-05T11:59:36.719Z,94437.88
2023-05-05T12:02:04.703Z,94442.25
2023-05-05T12:04:31.512Z,94446.59
2023-05-05T12:06:59.927Z,94438.44
2023-05-05T12:09:26.957Z,94429.25
2023-05-05T12:11:58.327Z,94420.66
2023-05-05T12:14:25.625Z,94425.03
2023-05-05T12:16:58.409Z,94426.69
2023-05-05T12:19:25.915Z,94424.09
2023-05-05T12:21:52.898Z,94419.53
2023-05-05T12:24:20.010Z,94415.16
2023-05-05T12:26:47.193Z,94419.50
2023-05-05T12:29:23.369Z,94413.00
2023-05-05T12:31:50.206Z,94423.28
2023-05-05T12:34:17.566Z,94434.34
2023-05-05T12:36:44.824Z,94434.88
2023-05-05T12:39:12.850Z,94428.34
2023-05-05T12:41:42.419Z,94415.88
2023-05-05T12:44:09.678Z,94413.69
2023-05-05T12:46:46.369Z,94406.50
2023-05-05T12:49:16.557Z,94408.38
2023-05-05T12:51:58.434Z,94397.41
2023-05-05T12:54:25.240Z,94402.66
2023-05-05T12:56:52.486Z,94406.72
2023-05-05T12:59:25.441Z,94398.63
2023-05-05T13:01:53.554Z,94389.81
2023-05-05T13:04:22.315Z,94382.47
2023-05-05T13:06:52.559Z,94383.41
2023-05-05T13:09:27.946Z,94367.59
2023-05-05T13:11:55.145Z,94372.81
2023-05-05T13:14:22.411Z,94366.28
2023-05-05T13:16:49.217Z,94356.84
2023-05-05T13:19:16.018Z,94365.09
2023-05-05T13:21:44.181Z,94351.97
2023-05-05T13:24:21.183Z,94358.97
2023-05-05T13:26:58.235Z,94351.72
2023-05-05T13:29:55.589Z,94345.63
2023-05-05T13:32:22.741Z,94347.41
2023-05-05T13:34:49.589Z,94348.75
2023-05-05T13:37:16.545Z,94342.31
2023-05-05T13:39:44.444Z,94340.66
2023-05-05T13:42:11.964Z,94339.63
2023-05-05T13:44:39.204Z,94334.06
2023-05-05T13:47:08.396Z,94334.19
2023-05-05T13:49:59.216Z,94336.13
2023-05-05T13:52:26.385Z,94333.84
2023-05-05T13:54:54.000Z,94339.59
2023-05-05T13:57:23.499Z,94324.88
2023-05-05T13:59:51.623Z,94329.53
2023-05-05T14:02:19.375Z,94320.63
2023-05-05T14:04:46.396Z,94330.81
2023-05-05T14:07:14.918Z,94319.88
2023-05-05T14:09:43.055Z,94320.53
2023-05-05T14:12:10.082Z,94320.44
2023-05-05T14:14:37.287Z,94322.38
2023-05-05T14:17:05.599Z,94316.44
2023-05-05T14:19:33.100Z,94320.69
2023-05-05T14:22:00.188Z,94318.75
2023-05-05T14:24:27.420Z,94312.84
2023-05-05T14:26:57.193Z,94315.34
2023-05-05T14:29:26.504Z,94316.84
2023-05-05T14:31:56.120Z,94315.88
2023-05-05T14:34:29.506Z,94312.38
2023-05-05T14:36:56.378Z,94316.59
2023-05-05T14:39:26.203Z,94305.50
2023-05-05T14:41:53.591Z,94313.78
2023-05-05T14:44:20.637Z,94321.47
2023-05-05T14:46:49.005Z,94324.16
2023-05-05T14:49:17.507Z,94322.38
2023-05-05T14:51:47.167Z,94317.81
2023-05-05T14:54:27.555Z,94319.66
2023-05-05T14:56:56.065Z,94318.72
2023-05-05T14:59:39.362Z,94310.28
2023-05-05T15:02:10.486Z,94316.63
2023-05-05T15:04:37.522Z,94314.84
2023-05-05T15:07:05.213Z,94325.50
2023-05-05T15:09:32.294Z,94325.25
2023-05-05T15:11:59.608Z,94321.06
2023-05-05T15:14:26.798Z,94334.00
2023-05-05T15:16:55.108Z,94334.53
2023-05-05T15:19:22.809Z,94334.34
2023-05-05T15:21:50.814Z,94330.97
2023-05-05T15:24:17.978Z,94331.41
2023-05-05T15:26:44.739Z,94324.22
2023-05-05T15:29:12.557Z,94330.59
2023-05-05T15:31:42.448Z,94329.69
2023-05-05T15:34:10.551Z,94328.75
2023-05-05T15:36:37.692Z,94336.66
2023-05-05T15:39:04.628Z,94331.13
2023-05-05T15:41:33.613Z,94335.06
2023-05-05T15:44:02.156Z,94335.84
2023-05-05T15:46:34.458Z,94325.59
2023-05-05T15:49:01.598Z,94323.13
2023-05-05T15:51:28.883Z,94332.28
2023-05-05T15:53:56.567Z,94333.28
2023-05-05T15:56:23.717Z,94349.91
2023-05-05T15:58:51.634Z,94345.06
2023-05-05T16:01:22.307Z,94341.41
2023-05-05T16:03:49.117Z,94349.91
2023-05-05T16:06:18.713Z,94342.00
2023-05-05T16:08:45.816Z,94348.78
2023-05-05T16:11:15.581Z,94340.38
2023-05-05T16:13:42.564Z,94345.31
2023-05-05T16:16:09.339Z,94345.06
2023-05-05T16:18:36.058Z,94339.97
2023-05-05T16:21:35.850Z,94338.22
2023-05-05T16:24:22.112Z,94338.66
2023-05-05T16:26:49.309Z,94348.94
2023-05-05T16:29:17.834Z,94346.25
2023-05-05T16:31:45.068Z,94353.41
2023-05-05T16:34:13.325Z,94364.38
2023-05-05T16:36:41.586Z,94353.66
2023-05-05T16:39:12.596Z,94356.28
2023-05-05T16:41:41.406Z,94353.66
2023-05-05T16:44:08.378Z,94358.06
2023-05-05T16:46:35.342Z,94364.69
2023-05-05T16:49:03.207Z,94365.25
2023-05-05T16:51:30.385Z,94350.84
2023-05-05T16:53:57.447Z,94353.16
2023-05-05T16:56:24.678Z,94349.41
2023-05-05T16:58:51.775Z,94351.03
2023-05-05T17:01:19.846Z,94340.34
2023-05-05T17:03:47.102Z,94351.81
2023-05-05T17:06:14.358Z,94350.81
2023-05-05T17:08:41.933Z,94355.75
2023-05-05T17:11:10.974Z,94353.81
2023-05-05T17:13:38.778Z,94354.84
2023-05-05T17:16:05.743Z,94352.56
2023-05-05T17:18:33.236Z,94351.69
2023-05-05T17:21:00.056Z,94352.97
2023-05-05T17:23:27.308Z,94352.03
2023-05-05T17:25:57.079Z,94342.44
2023-05-05T17:28:23.935Z,94351.00
2023-05-05T17:30:51.134Z,94359.69
2023-05-05T17:33:17.904Z,94349.97
2023-05-05T17:35:46.188Z,94362.03
2023-05-05T17:38:13.090Z,94359.44
2023-05-05T17:40:42.803Z,94364.22
2023-05-05T17:43:10.733Z,94373.38
2023-05-05T17:45:37.485Z,94371.63
2023-05-05T17:48:04.520Z,94366.63
2023-05-05T17:50:31.323Z,94367.88
2023-05-05T17:52:58.109Z,94371.78
2023-05-05T17:55:25.714Z,94379.84
2023-05-05T17:57:53.039Z,94378.19
2023-05-05T18:00:23.874Z,94381.09
2023-05-05T18:02:50.873Z,94380.47
2023-05-05T18:05:18.325Z,94393.50
2023-05-05T18:07:45.166Z,94385.28
2023-05-05T18:10:12.306Z,94389.97
2023-05-05T18:12:40.893Z,94388.09
2023-05-05T18:15:08.186Z,94392.91
2023-05-05T18:17:35.757Z,94399.97
2023-05-05T18:20:02.773Z,94399.72
2023-05-05T18:22:29.591Z,94397.56
2023-05-05T18:24:56.309Z,94404.75
2023-05-05T18:27:25.821Z,94404.59
2023-05-05T18:29:52.650Z,94406.44
2023-05-05T18:32:19.511Z,94405.34
2023-05-05T18:34:46.698Z,94408.81
2023-05-05T18:37:13.395Z,94403.19
2023-05-05T18:39:44.139Z,94412.81
2023-05-05T18:42:13.070Z,94409.13
2023-05-05T18:44:39.895Z,94413.22
2023-05-05T18:47:08.262Z,94419.22
2023-05-05T18:49:35.282Z,94420.19
2023-05-05T18:52:02.474Z,94414.59
2023-05-05T18:54:29.624Z,94419.22
2023-05-05T18:56:58.636Z,94416.03
2023-05-05T18:59:25.882Z,94410.88
2023-05-05T19:01:52.730Z,94410.16
2023-05-05T19:04:30.688Z,94418.13
2023-05-05T19:06:58.635Z,94418.09
2023-05-05T19:09:26.172Z,94428.50
2023-05-05T19:11:55.767Z,94434.66
2023-05-05T19:14:22.936Z,94434.09
2023-05-05T19:16:51.077Z,94423.34
2023-05-05T19:19:18.107Z,94434.75
2023-05-05T19:21:45.362Z,94434.19
2023-05-05T19:24:12.307Z,94429.16
2023-05-05T19:30:47.559Z,94445.97
2023-05-05T19:33:17.646Z,94449.47
2023-05-05T19:35:47.166Z,94445.69
2023-05-05T19:38:14.093Z,94437.41
2023-05-05T19:40:42.051Z,94439.25
2023-05-05T19:43:09.529Z,94443.59
2023-05-05T19:45:42.524Z,94441.84
2023-05-05T19:48:10.357Z,94448.09
2023-05-05T19:50:38.455Z,94439.84
2023-05-05T19:53:05.577Z,94452.19
2023-05-05T19:55:32.611Z,94449.63
2023-05-05T19:58:02.577Z,94455.13
2023-05-05T20:00:29.747Z,94455.00
2023-05-05T20:02:57.053Z,94448.06
2023-05-05T20:05:24.213Z,94450.69
2023-05-05T20:07:54.019Z,94451.81
2023-05-05T20:10:22.880Z,94452.97
2023-05-05T20:12:49.718Z,94455.22
2023-05-05T20:15:19.260Z,94453.44
2023-05-05T20:17:47.248Z,94455.50
2023-05-05T20:20:16.128Z,94452.38
2023-05-05T20:22:43.709Z,94446.28
2023-05-05T20:25:13.500Z,94450.66
2023-05-05T20:27:40.658Z,94451.94
2023-05-05T20:30:11.839Z,94446.28
2023-05-05T20:32:39.657Z,94449.63
2023-05-05T20:35:08.661Z,94446.25
2023-05-05T20:37:36.409Z,94447.81
2023-05-05T20:40:03.879Z,94447.25
2023-05-05T20:42:31.988Z,94458.13
2023-05-05T20:45:00.524Z,94451.72
2023-05-05T20:47:27.851Z,94447.88
2023-05-05T20:49:54.597Z,94452.00
2023-05-05T20:52:21.421Z,94457.41
2023-05-05T20:54:48.726Z,94452.44
2023-05-05T20:57:15.756Z,94457.78
2023-05-05T20:59:44.059Z,94460.56
2023-05-05T21:02:12.174Z,94461.22
2023-05-05T21:04:39.316Z,94457.31
2023-05-05T21:07:07.040Z,94461.47
2023-05-05T21:09:58.352Z,94458.41
2023-05-05T21:12:45.204Z,94457.13
2023-05-05T21:15:12.251Z,94460.69
2023-05-05T21:17:39.201Z,94453.53
2023-05-05T21:20:09.361Z,94456.59
2023-05-05T21:22:36.301Z,94453.38
2023-05-05T21:25:13.855Z,94456.44
2023-05-05T21:27:40.518Z,94448.78
2023-05-05T21:30:10.811Z,94456.53
2023-05-05T21:32:57.054Z,94446.97
2023-05-05T21:35:43.059Z,94444.72
2023-05-05T21:38:28.767Z,94444.75
2023-05-05T21:40:59.740Z,94436.81
2023-05-05T21:43:45.366Z,94440.44
2023-05-05T21:46:30.811Z,94444.53
2023-05-05T21:49:16.329Z,94440.16
2023-05-05T21:52:02.390Z,94448.34
2023-05-05T21:54:49.339Z,94446.34
2023-05-05T21:57:35.489Z,94461.75
2023-05-05T22:00:02.766Z,94453.28
2023-05-05T22:02:29.992Z,94453.28
2023-05-05T22:04:56.832Z,94456.38
2023-05-05T22:07:26.441Z,94448.66
2023-05-05T22:09:54.463Z,94443.53
2023-05-05T22:12:21.957Z,94439.41
2023-05-05T22:14:48.821Z,94437.34
2023-05-05T22:17:15.506Z,94422.44
2023-05-05T22:19:43.466Z,94419.34
2023-05-05T22:22:10.625Z,94422.47
2023-05-05T22:24:39.099Z,94423.47
2023-05-05T22:27:06.234Z,94426.53
2023-05-05T22:29:34.353Z,94419.09
2023-05-05T22:32:01.425Z,94427.84
2023-05-05T22:34:28.117Z,94427.34
2023-05-05T22:36:54.819Z,94431.44
2023-05-05T22:39:22.065Z,94425.72
2023-05-05T22:41:48.879Z,94422.22
2023-05-05T22:44:16.032Z,94422.91
2023-05-05T22:46:42.868Z,94433.91
2023-05-05T22:49:09.630Z,94423.44
2023-05-05T22:51:37.101Z,94421.63
2023-05-05T22:54:04.715Z,94425.78
2023-05-05T22:56:31.880Z,94421.16
2023-05-05T22:58:58.986Z,94417.81
2023-05-05T23:01:26.119Z,94423.91
2023-05-05T23:03:52.951Z,94428.53
2023-05-05T23:06:21.672Z,94430.09
2023-05-05T23:08:48.685Z,94422.88
2023-05-05T23:11:15.481Z,94420.00
2023-05-05T23:13:42.901Z,94415.66
2023-05-05T23:16:32.113Z,94423.16
2023-05-05T23:18:59.246Z,94418.59
2023-05-05T23:21:25.937Z,94422.44
2023-05-05T23:23:53.057Z,94419.63
2023-05-05T23:26:19.807Z,94419.09
2023-05-05T23:28:46.737Z,94420.84
2023-05-05T23:31:13.955Z,94415.97
2023-05-05T23:33:42.728Z,94422.19
2023-05-05T23:36:10.031Z,94424.50
2023-05-05T23:38:37.936Z,94428.38
2023-05-05T23:41:05.166Z,94417.75
2023-05-05T23:43:32.351Z,94428.53
2023-05-05T23:45:59.965Z,94426.28
2023-05-05T23:48:26.741Z,94423.41
2023-05-05T23:50:53.846Z,94422.03
2023-05-05T23:53:20.529Z,94416.34
2023-05-05T23:55:47.798Z,94416.56
2023-05-05T23:58:14.487Z,94409.91
